SKF weather

Lackland Air Force Base
San Antonio, Texas, United States

Public forecast

Using degrees Fahrenheit for public forecast. Weather courtesy of forecast.io.

METAR (pilot weather report)

Retrieved 2019/09/16 02:56 UTC (13 minutes ago):

KSKF 160256Z AUTO 13010KT 10SM CLR 29/19 A2999 RMK AO2 SLP147 T02940191 53014 $

TAF (pilot weather forecast)

Retrieved 2019/09/16 02:12 UTC (57 minutes ago):

TAF KSKF 160200Z 1602/1708 09008KT 9999 FEW090 QNH2995INS BECMG 1617/1618 07009KT 9999 SCT060 SCT250 QNH2986INS TX35/1621Z TN23/1611Z